createdAt,value
2018-02-14T19:45:11.705Z,17.13
2018-02-14T19:45:59.627Z,14.93
2018-02-14T19:46:47.736Z,16.20
2018-02-14T19:47:35.785Z,16.57
2018-02-14T19:48:28.772Z,16.10
2018-02-14T19:49:16.912Z,16.10
2018-02-14T19:50:04.958Z,15.50
2018-02-14T19:50:53.168Z,15.27
2018-02-14T19:51:41.534Z,16.93
2018-02-14T19:52:30.609Z,15.27
2018-02-14T19:53:19.025Z,15.63
2018-02-14T19:54:08.006Z,14.80
2018-02-14T19:54:56.292Z,15.67
2018-02-14T19:55:44.605Z,15.23
2018-02-14T19:56:32.504Z,16.50
2018-02-14T19:58:22.418Z,15.80
2018-02-14T19:59:11.108Z,16.03
2018-02-14T19:59:59.056Z,15.77
2018-02-14T20:00:47.467Z,16.00
2018-02-14T20:01:37.031Z,15.43
2018-02-14T20:02:25.406Z,15.50
2018-02-14T20:03:13.307Z,14.57
2018-02-14T20:04:01.206Z,14.80
2018-02-14T20:04:49.835Z,14.20
2018-02-14T20:05:37.951Z,15.37
2018-02-14T20:06:26.769Z,13.80
2018-02-14T20:07:16.188Z,14.63
2018-02-14T20:08:05.034Z,14.27
2018-02-14T20:08:54.253Z,15.50
2018-02-14T20:09:42.179Z,14.20
2018-02-14T20:10:30.084Z,14.00
2018-02-14T20:11:18.147Z,12.87
2018-02-14T20:12:07.016Z,13.43
2018-02-14T20:12:54.885Z,13.77
2018-02-14T20:13:43.102Z,13.50
2018-02-14T20:14:31.915Z,14.43
2018-02-14T20:15:19.819Z,12.90
2018-02-14T20:16:08.008Z,13.63
2018-02-14T20:16:56.656Z,13.03
2018-02-14T20:17:44.972Z,12.83
2018-02-14T20:18:33.572Z,12.57
2018-02-14T20:19:21.704Z,13.40
2018-02-14T20:20:09.594Z,13.20
2018-02-14T20:20:57.475Z,13.33
2018-02-14T20:21:45.776Z,13.10
2018-02-14T20:22:34.543Z,13.23
2018-02-14T20:23:22.902Z,13.13
2018-02-14T20:24:10.795Z,13.23
2018-02-14T20:24:58.695Z,13.17
2018-02-14T20:25:46.601Z,12.33
2018-02-14T20:26:34.766Z,12.57
2018-02-14T20:27:22.971Z,13.27
2018-02-14T20:28:10.858Z,13.63
2018-02-14T20:28:58.776Z,12.07
2018-02-14T20:29:46.680Z,12.93
2018-02-14T20:30:34.687Z,12.50
2018-02-14T20:31:23.821Z,12.23
2018-02-14T20:32:12.050Z,11.70
2018-02-14T20:33:00.736Z,11.50
2018-02-14T20:33:49.130Z,11.10
2018-02-14T20:34:38.010Z,11.53
2018-02-14T20:35:25.893Z,11.93
2018-02-14T20:36:13.816Z,12.40
2018-02-14T20:37:02.457Z,11.50
2018-02-14T20:37:51.514Z,11.53
2018-02-14T20:38:40.079Z,10.93
2018-02-14T20:39:28.633Z,12.03
2018-02-14T20:40:16.779Z,12.20
2018-02-14T20:41:05.365Z,11.67
2018-02-14T20:41:53.288Z,12.10
2018-02-14T20:42:41.148Z,11.33
2018-02-14T20:43:29.336Z,11.73
2018-02-14T20:44:17.493Z,12.17
2018-02-14T20:45:05.409Z,12.13
2018-02-14T20:45:53.321Z,12.10
2018-02-14T20:46:41.194Z,12.63
2018-02-14T20:47:29.211Z,11.93
2018-02-14T20:48:17.299Z,11.97
2018-02-14T20:49:05.181Z,12.37
2018-02-14T20:49:53.266Z,11.13
2018-02-14T20:50:41.149Z,12.70
2018-02-14T20:51:29.041Z,11.50
2018-02-14T20:52:17.220Z,12.23
2018-02-14T20:53:05.181Z,11.67
2018-02-14T20:53:53.193Z,13.17
2018-02-14T20:54:41.330Z,12.30
2018-02-14T20:55:29.739Z,12.33
2018-02-14T20:56:17.679Z,11.77
2018-02-14T20:57:05.591Z,12.23
2018-02-14T20:57:53.640Z,12.20
2018-02-14T20:58:41.634Z,12.70
2018-02-14T20:59:29.513Z,10.67
2018-02-14T21:00:17.386Z,12.30
2018-02-14T21:01:05.336Z,12.37
2018-02-14T21:02:11.868Z,11.80
2018-02-14T21:02:59.755Z,12.53
2018-02-14T21:03:47.619Z,11.83
2018-02-14T21:04:35.494Z,11.13
2018-02-14T21:05:23.367Z,12.80
2018-02-14T21:06:11.296Z,11.53
2018-02-14T21:06:59.154Z,12.27
2018-02-14T21:07:47.052Z,12.07
2018-02-14T21:08:35.259Z,12.33
2018-02-14T21:09:23.132Z,11.00
2018-02-14T21:10:11.040Z,11.50
2018-02-14T21:10:58.900Z,11.83
2018-02-14T21:11:46.769Z,11.43
2018-02-14T21:12:34.661Z,12.30
2018-02-14T21:13:22.525Z,12.07
2018-02-14T21:14:10.448Z,10.93
2018-02-14T21:14:58.525Z,11.27
2018-02-14T21:15:46.680Z,11.33
2018-02-14T21:16:34.571Z,11.50
2018-02-14T21:17:22.468Z,11.53
2018-02-14T21:18:10.342Z,12.00
2018-02-14T21:20:27.893Z,10.90
2018-02-14T21:21:15.803Z,10.90
2018-02-14T21:22:03.722Z,10.57
2018-02-14T21:22:51.610Z,11.53
2018-02-14T21:23:39.495Z,10.63
2018-02-14T21:24:27.409Z,11.63
2018-02-14T21:25:15.340Z,11.07
2018-02-14T21:26:03.217Z,11.30
2018-02-14T21:26:51.090Z,10.80
2018-02-14T21:27:39.418Z,10.70
2018-02-14T21:28:44.130Z,10.90
2018-02-14T21:29:32.150Z,10.50
2018-02-14T21:30:20.395Z,10.33
2018-02-14T21:31:08.700Z,10.30
2018-02-14T21:31:56.635Z,11.60
2018-02-14T21:33:09.693Z,10.70
2018-02-14T21:33:57.765Z,10.10
2018-02-14T21:34:45.641Z,11.03
2018-02-14T21:35:33.511Z,10.60
2018-02-14T21:36:21.400Z,10.40
2018-02-14T21:37:09.298Z,10.27
2018-02-14T21:37:57.185Z,11.10
2018-02-14T21:38:45.104Z,10.53
2018-02-14T21:39:33.083Z,10.20
2018-02-14T21:40:20.960Z,10.77
2018-02-14T21:41:08.839Z,10.77
2018-02-14T21:41:56.728Z,10.67
2018-02-14T21:42:55.251Z,10.30
2018-02-14T21:43:43.650Z,10.17
2018-02-14T21:44:31.551Z,9.77
2018-02-14T21:45:19.478Z,10.23
2018-02-14T21:46:07.354Z,10.13
2018-02-14T21:46:55.260Z,10.23
2018-02-14T21:47:43.168Z,10.20
2018-02-14T21:48:31.101Z,10.03
2018-02-14T21:49:18.995Z,10.47
2018-02-14T21:50:07.638Z,9.97
2018-02-14T21:50:55.537Z,10.00
2018-02-14T21:51:43.495Z,9.27
2018-02-14T21:52:31.386Z,10.17
2018-02-14T21:53:19.348Z,9.97
2018-02-14T21:54:07.248Z,10.20
2018-02-14T21:54:55.237Z,9.10
2018-02-14T21:55:43.372Z,9.57
2018-02-14T21:56:31.259Z,9.87
2018-02-14T21:57:19.190Z,10.50
2018-02-14T21:58:07.132Z,10.10
2018-02-14T21:58:55.039Z,10.17
2018-02-14T21:59:43.461Z,10.27
2018-02-14T22:00:31.505Z,10.17
2018-02-14T22:01:19.446Z,10.30
2018-02-14T22:02:07.597Z,9.27
2018-02-14T22:02:55.452Z,10.47
2018-02-14T22:03:43.352Z,9.77
2018-02-14T22:04:31.232Z,10.20
2018-02-14T22:05:20.319Z,10.10
2018-02-14T22:06:08.288Z,9.87
2018-02-14T22:06:56.259Z,9.77
2018-02-14T22:07:44.406Z,10.13
2018-02-14T22:08:32.281Z,9.53
2018-02-14T22:09:20.161Z,9.57
2018-02-14T22:10:08.048Z,9.93
2018-02-14T22:10:55.915Z,9.93
2018-02-14T22:11:43.843Z,10.10
2018-02-14T22:12:31.752Z,10.23
2018-02-14T22:13:19.608Z,9.83
2018-02-14T22:14:07.454Z,9.17
2018-02-14T22:14:55.329Z,9.53
2018-02-14T22:15:43.307Z,9.17
2018-02-14T22:16:31.177Z,9.83
2018-02-14T22:17:19.106Z,9.33
2018-02-14T22:18:07.053Z,8.80
2018-02-14T22:18:54.928Z,10.17
2018-02-14T22:19:42.865Z,8.80
2018-02-14T22:20:30.746Z,9.50
2018-02-14T22:21:18.955Z,9.63
2018-02-14T22:22:06.828Z,9.87
2018-02-14T22:22:54.686Z,9.23
2018-02-14T22:23:42.566Z,9.73
2018-02-14T22:24:30.429Z,9.23
2018-02-14T22:25:19.113Z,9.60
2018-02-14T22:26:06.984Z,10.00
2018-02-14T22:26:55.185Z,9.70
2018-02-14T22:27:43.050Z,9.73
